Latest Coastal Weather Observations for Karratha

IDW60701

Issued at 12:02 am WST Tuesday 7 July 2015 (issued every 10 minutes, with the page automatically refreshed every 10 minutes)

About coastal observations | Map of coastal stations | Coastal observations for WA | Marine services | Other Formats
Station Details ID: 004083 Name: KARRATHA AERO Lat: -20.71 Lon: 116.77 Height: 5.3 m
Data from the previous 72 hours. | See also: Recent months at Karratha
Date/Time
WST
Temp

°C
Wind Pressure Rain
since 9am
mm
Weather Cloud Vis
km
Sea
Height
m
Swell
Dir
 
Speed
knots
Gust
knots
hPa Trend Height
m
Period
s
Dir
07/12:00am 14.2 S 4 5 1016.2 - 0.0 - - 10 - - - -
 
Date/Time
WST
Temp

°C
Wind Pressure Rain
since 9am
mm
Weather Cloud Vis
km
Sea
Height
m
Swell
Dir
 
Speed
knots
Gust
knots
hPa Trend Height
m
Period
s
Dir
06/11:30pm 13.9 WSW 5 6 1016.3 - 0.0 - - 10 - - - -
06/11:00pm 15.3 WSW 4 6 1016.4 - 0.0 - - 10 - - - -
06/10:30pm 15.1 SSW 4 4 1016.6 - 0.0 - - 10 - - - -
06/10:00pm 15.3 S 1 5 1016.6 - 0.0 - - 10 - - - -
06/09:30pm 15.6 S 4 5 1016.6 - 0.0 - - 10 - - - -
06/09:00pm 15.8 S 7 7 1016.8 - 0.0 - - 10 - - - -
06/08:30pm 16.0 S 6 7 1016.8 - 0.0 - - 10 - - - -
06/08:00pm 17.5 CALM 0 0 1016.6 - 0.0 - - 10 - - - -
06/07:30pm 18.8 CALM 0 0 1016.3 - 0.0 - - 10 - - - -
06/07:00pm 19.0 E 4 5 1016.1 - 0.0 - - 10 - - - -
06/06:30pm 19.8 ENE 4 5 1015.7 - 0.0 - - 10 - - - -
06/06:00pm 20.5 NE 6 8 1015.6 - 0.0 - - 10 - - - -
06/05:30pm 23.0 NNE 7 9 1015.3 - 0.0 - - 10 - - - -
06/05:00pm 24.1 NNE 9 12 1015.2 - 0.0 - - 10 - - - -
06/04:30pm 25.0 NNE 10 13 1015.1 - 0.0 - - 10 - - - -
06/04:00pm 25.5 NNE 11 14 1015.0 - 0.0 - - 10 - - - -
06/03:30pm 25.9 NNE 11 14 1015.1 - 0.0 - - 10 - - - -
06/03:00pm 26.0 NNE 10 13 1015.2 - 0.0 - - 10 - - - -
06/02:30pm 25.0 NNE 11 14 1015.3 - 0.0 - - 10 - - - -
06/02:00pm 25.3 NNE 11 14 1015.4 - 0.0 - - 10 - - - -
06/01:30pm 25.3 NNE 13 17 1015.7 - 0.0 - - 10 - - - -
06/01:00pm 25.1 NNE 12 16 1016.0 - 0.0 - - 10 - - - -
06/12:30pm 25.6 NE 11 16 1016.4 - 0.0 - - 10 - - - -
06/12:00pm 25.2 NE 10 13 1016.8 - 0.0 - - 10 - - - -
06/11:30am 25.2 NE 8 11 1017.2 - 0.0 - - 10 - - - -
06/11:00am 25.2 ENE 9 11 1017.5 - 0.0 - - 10 - - - -
06/10:30am 24.7 ENE 10 13 1017.8 - 0.0 - - 10 - - - -
06/10:00am 23.9 ENE 7 9 1018.1 - 0.0 - - 10 - - - -
06/09:30am 23.2 E 5 7 1018.1 - 0.0 - - 10 - - - -
06/09:00am 21.7 ESE 4 6 1018.2 - 0.0 - - 10 - - - -
06/08:30am 19.0 CALM 0 2 1017.9 - 0.0 - - 10 - - - -
06/08:00am 16.2 SE 2 4 1017.6 - 0.0 - - 10 - - - -
06/07:30am 13.6 SE 4 5 1017.3 - 0.0 - - 10 - - - -
06/07:00am 12.3 SSE 5 6 1017.1 - 0.0 - - 10 - - - -
06/06:30am 12.1 SSE 1 5 1016.9 - 0.0 - - 10 - - - -
06/06:00am 11.9 SSW 5 7 1016.8 - 0.0 - - 10 - - - -
06/05:30am 12.4 S 7 8 1016.7 - 0.0 - - 10 - - - -
06/05:00am 11.8 S 5 7 1016.5 - 0.0 - - 10 - - - -
06/04:30am 12.5 S 6 7 1016.4 - 0.0 - - 10 - - - -
06/04:00am 13.9 S 3 5 1016.3 - 0.0 - - 10 - - - -
06/03:30am 14.9 SSW 5 6 1016.2 - 0.0 - - 10 - - - -
06/03:00am 15.4 SSW 5 7 1016.4 - 0.0 - - 10 - - - -
06/02:30am 15.3 WSW 4 6 1016.6 - 0.0 - - 10 - - - -
06/02:00am 13.8 SSW 6 7 1016.9 - 0.0 - - 10 - - - -
06/01:30am 14.5 S 8 9 1017.1 - 0.0 - - 10 - - - -
06/01:00am 13.5 SSE 5 7 1017.2 - 0.0 - - 10 - - - -
06/12:30am 13.2 SSE 6 7 1017.4 - 0.0 - - 10 - - - -
06/12:00am 13.8 S 6 6 1017.6 - 0.0 - - 10 - - - -
 
Date/Time
WST
Temp

°C
Wind Pressure Rain
since 9am
mm
Weather Cloud Vis
km
Sea
Height
m
Swell
Dir
 
Speed
knots
Gust
knots
hPa Trend Height
m
Period
s
Dir
05/11:30pm 14.8 S 6 7 1017.8 - 0.0 - - 10 - - - -
05/11:00pm 14.5 SSW 5 6 1017.5 - 0.0 - - 10 - - - -
05/10:30pm 15.1 SSW 5 7 1017.6 - 0.0 - - 10 - - - -
05/10:00pm 14.8 SSW 5 5 1017.5 - 0.0 - - 10 - - - -
05/09:30pm 16.4 SW 4 5 1017.3 - 0.0 - - 10 - - - -
05/09:00pm 16.4 SSW 7 8 1017.5 - 0.0 - - 10 - - - -
05/08:30pm 16.9 SSW 6 7 1017.4 - 0.0 - - 10 - - - -
05/08:00pm 17.5 SW 5 6 1017.3 - 0.0 - - 10 - - - -
05/07:30pm 19.1 CALM 0 0 1017.0 - 0.0 - - 10 - - - -
05/07:00pm 19.3 NE 4 5 1016.7 - 0.0 - - 10 - - - -
05/06:30pm 19.7 NE 4 5 1016.7 - 0.0 - - 10 - - - -
05/06:00pm 20.9 NNE 2 4 1016.6 - 0.0 - - 10 - - - -
05/05:30pm 22.5 NNE 6 9 1016.4 - 0.0 - - 10 - - - -
05/05:00pm 24.0 NNE 9 10 1016.3 - 0.0 - - 10 - - - -
05/04:30pm 25.2 NNE 8 10 1016.3 - 0.0 - - 10 - - - -
05/04:00pm 25.4 NNE 9 12 1016.2 - 0.0 - - 10 - - - -
05/03:30pm 25.7 NNE 10 13 1016.3 - 0.0 - - 10 - - - -
05/03:00pm 25.7 NNE 11 13 1016.5 - 0.0 - - 10 - - - -
05/02:30pm 25.5 NNE 11 15 1016.6 - 0.0 - - 10 - - - -
05/02:00pm 25.6 NNE 12 15 1016.7 - 0.0 - - 10 - - - -
05/01:30pm 25.5 NNE 12 15 1017.1 - 0.0 - - 10 - - - -
05/01:00pm 25.5 NNE 13 15 1017.6 - 0.0 - - 10 - - - -
05/12:30pm 26.4 NE 13 16 1018.0 - 0.0 - - 10 - - - -
05/12:00pm 26.6 ENE 12 15 1018.7 - 0.0 - - 10 - - - -
05/11:30am 25.7 ENE 10 12 1019.2 - 0.0 - - 10 - - - -
05/11:00am 25.4 ENE 10 13 1019.7 - 0.0 - - 10 - - - -
05/10:30am 24.7 ENE 8 11 1019.9 - 0.0 - - 10 - - - -
05/10:00am 24.5 ENE 11 13 1020.0 - 0.0 - - 10 - - - -
05/09:30am 22.8 NE 6 8 1020.0 - 0.0 - - 10 - - - -
05/09:00am 22.2 E 5 7 1020.1 - 0.0 - - 10 - - - -
05/08:30am 19.9 CALM 0 0 1019.9 - 0.0 - - 10 - - - -
05/08:00am 16.0 CALM 0 0 1019.4 - 0.0 - - 10 - - - -
05/07:30am 13.2 CALM 0 3 1019.1 - 0.0 - - 10 - - - -
05/07:00am 11.7 S 5 6 1018.9 - 0.0 - - 10 - - - -
05/06:30am 12.3 S 5 6 1018.6 - 0.0 - - 10 - - - -
05/06:00am 12.1 S 4 5 1018.2 - 0.0 - - 10 - - - -
05/05:30am 11.7 S 6 7 1018.0 - 0.0 - - 10 - - - -
05/05:00am 12.1 S 7 8 1017.9 - 0.0 - - 10 - - - -
05/04:30am 12.0 S 7 7 1017.8 - 0.0 - - 10 - - - -
05/04:00am 12.7 S 6 8 1017.8 - 0.0 - - 10 - - - -
05/03:30am 13.7 S 5 6 1017.7 - 0.0 - - 10 - - - -
05/03:00am 14.6 SSW 2 5 1017.7 - 0.0 - - 10 - - - -
05/02:30am 13.1 CALM 0 0 1017.7 - 0.0 - - 10 - - - -
05/02:00am 14.8 WSW 1 4 1018.0 - 0.0 - - 10 - - - -
05/01:30am 15.4 SSW 1 3 1018.1 - 0.0 - - 10 - - - -
05/01:00am 15.7 WSW 3 5 1018.2 - 0.0 - - 10 - - - -
05/12:30am 16.2 SW 5 6 1018.2 - 0.0 - - 10 - - - -
05/12:00am 15.4 SW 4 5 1018.3 - 0.0 - - 10 - - - -
 
Date/Time
WST
Temp

°C
Wind Pressure Rain
since 9am
mm
Weather Cloud Vis
km
Sea
Height
m
Swell
Dir
 
Speed
knots
Gust
knots
hPa Trend Height
m
Period
s
Dir
04/11:30pm 15.6 SW 7 8 1018.3 - 0.0 - - 10 - - - -
04/11:00pm 16.6 WSW 6 7 1018.3 - 0.0 - - 10 - - - -
04/10:30pm 16.9 WSW 8 9 1018.3 - 0.0 - - 10 - - - -
04/10:00pm 16.8 SW 7 8 1018.5 - 0.0 - - 10 - - - -
04/09:30pm 17.2 SSW 4 5 1018.4 - 0.0 - - 10 - - - -
04/09:00pm 17.5 SW 7 8 1018.3 - 0.0 - - 10 - - - -
04/08:30pm 16.8 SE 4 5 1018.1 - 0.0 - - 10 - - - -
04/08:00pm 17.6 ESE 4 5 1017.7 - 0.0 - - 10 - - - -
04/07:30pm 18.7 ENE 4 5 1017.5 - 0.0 - - 10 - - - -
04/07:00pm 19.0 NE 5 6 1017.2 - 0.0 - - 10 - - - -
04/06:30pm 20.5 NNE 5 6 1017.0 - 0.0 - - 10 - - - -
04/06:00pm 22.0 NNE 5 6 1016.8 - 0.0 - - 10 - - - -
04/05:30pm 24.1 NNE 5 6 1016.7 - 0.0 - - 10 - - - -
04/05:00pm 25.5 NE 7 8 1016.6 - 0.0 - - 10 - - - -
04/04:30pm 26.3 NE 8 11 1016.6 - 0.0 - - 10 - - - -
04/04:00pm 26.1 NNE 9 11 1016.8 - 0.0 - - 10 - - - -
04/03:30pm 26.7 NNE 10 14 1016.7 - 0.0 - - 10 - - - -
04/03:00pm 27.0 NE 10 13 1016.9 - 0.0 - - 10 - - - -
04/02:30pm 27.3 NE 11 15 1016.9 - 0.0 - - 10 - - - -
04/02:00pm 27.1 NE 12 15 1017.1 - 0.0 - - 10 - - - -
04/01:30pm 27.7 NE 12 16 1017.4 - 0.0 - - 10 - - - -
04/01:00pm 27.5 NE 11 15 1017.8 - 0.0 - - 10 - - - -
04/12:30pm 27.4 ENE 11 14 1018.3 - 0.0 - - 10 - - - -
04/12:00pm 27.5 NE 11 14 1018.8 - 0.0 - - 10 - - - -
04/11:30am 27.2 ENE 11 14 1019.4 - 0.0 - - 10 - - - -
04/11:00am 27.0 ENE 12 15 1019.6 - 0.0 - - 10 - - - -
04/10:30am 26.7 E 12 15 1019.9 - 0.0 - - 10 - - - -
04/10:00am 26.1 ESE 11 14 1020.2 - 0.0 - - 10 - - - -
04/09:30am 25.1 ESE 11 15 1020.3 - 0.0 - - 10 - - - -
04/09:00am 23.1 SE 9 11 1020.3 - 0.0 - - 10 - - - -
04/08:30am 20.8 SSE 7 8 1020.0 - 0.0 - - 10 - - - -
04/08:00am 17.6 SSE 6 7 1019.9 - 0.0 - - 10 - - - -
04/07:30am 14.8 SSE 9 9 1019.3 - 0.0 - - 10 - - - -
04/07:00am 12.9 SSE 8 9 1019.1 - 0.0 - - 10 - - - -
04/06:30am 13.0 SSE 8 8 1018.8 - 0.0 - - 10 - - - -
04/06:00am 12.8 S 7 8 1018.5 - 0.0 - - 10 - - - -
04/05:30am 12.5 SSE 7 7 1018.4 - 0.0 - - 10 - - - -
04/05:00am 12.8 SSE 5 6 1018.2 - 0.0 - - 10 - - - -
04/04:30am 12.9 S 6 7 1018.1 - 0.0 - - 10 - - - -
04/04:00am 13.2 S 5 5 1018.3 - 0.0 - - 10 - - - -
04/03:30am 13.7 SSE 5 6 1018.3 - 0.0 - - 10 - - - -
04/03:00am 14.9 ESE 3 5 1018.5 - 0.0 - - 10 - - - -
04/02:30am 16.5 SSW 5 5 1018.5 - 0.0 - - 10 - - - -
04/02:00am 16.6 SW 3 4 1018.6 - 0.0 - - 10 - - - -
04/01:30am 16.4 WSW 4 5 1018.7 - 0.0 - - 10 - - - -
04/01:00am 15.7 SW 4 5 1018.8 - 0.0 - - 10 - - - -
04/12:30am 16.1 SW 5 6 1018.8 - 0.0 - - 10 - - - -

Other Formats:

Comma delimited format used in spreadsheet applications
http://www.bom.gov.au/fwo/IDW60701/IDW60701.95307.axf

JavaScript Object Notation format (JSON) in row-major order
http://www.bom.gov.au/fwo/IDW60701/IDW60701.95307.json